sensor_id;sensor_type;location;lat;lon;timestamp;pressure;altitude;pressure_sealevel;temperature;humidity
72560;BME280;62987;52.382;9.752;2022-08-19T00:02:00;100574.72;;;18.71;81.89
72560;BME280;62987;52.382;9.752;2022-08-19T00:04:31;100573.00;;;18.70;82.19
72560;BME280;62987;52.382;9.752;2022-08-19T00:07:00;100571.16;;;18.71;82.00
72560;BME280;62987;52.382;9.752;2022-08-19T00:09:29;100562.31;;;18.69;82.08
72560;BME280;62987;52.382;9.752;2022-08-19T00:11:57;100563.19;;;18.69;81.56
72560;BME280;62987;52.382;9.752;2022-08-19T00:14:28;100564.41;;;18.65;81.65
72560;BME280;62987;52.382;9.752;2022-08-19T00:16:59;100564.16;;;18.68;81.63
72560;BME280;62987;52.382;9.752;2022-08-19T00:19:28;100567.72;;;18.69;81.46
72560;BME280;62987;52.382;9.752;2022-08-19T00:21:56;100555.22;;;18.68;81.10
72560;BME280;62987;52.382;9.752;2022-08-19T00:24:25;100562.44;;;18.67;81.66
72560;BME280;62987;52.382;9.752;2022-08-19T00:26:55;100546.16;;;18.69;80.96
72560;BME280;62987;52.382;9.752;2022-08-19T00:29:45;100531.56;;;18.60;81.30
72560;BME280;62987;52.382;9.752;2022-08-19T00:32:18;100535.25;;;18.59;81.67
72560;BME280;62987;52.382;9.752;2022-08-19T00:34:47;100518.69;;;18.53;81.47
72560;BME280;62987;52.382;9.752;2022-08-19T00:37:15;100532.00;;;18.54;81.59
72560;BME280;62987;52.382;9.752;2022-08-19T00:39:43;100527.09;;;18.48;81.65
72560;BME280;62987;52.382;9.752;2022-08-19T00:42:15;100526.50;;;18.45;82.15
72560;BME280;62987;52.382;9.752;2022-08-19T00:44:44;100523.16;;;18.41;82.22
72560;BME280;62987;52.382;9.752;2022-08-19T00:47:13;100515.56;;;18.35;82.29
72560;BME280;62987;52.382;9.752;2022-08-19T00:49:45;100526.47;;;18.33;82.13
72560;BME280;62987;52.382;9.752;2022-08-19T00:52:20;100529.28;;;18.32;82.24
72560;BME280;62987;52.382;9.752;2022-08-19T00:54:50;100522.38;;;18.28;82.43
72560;BME280;62987;52.382;9.752;2022-08-19T00:57:23;100514.31;;;18.28;82.45
72560;BME280;62987;52.382;9.752;2022-08-19T00:59:55;100512.09;;;18.22;82.60
72560;BME280;62987;52.382;9.752;2022-08-19T01:02:30;100509.28;;;18.23;82.34
72560;BME280;62987;52.382;9.752;2022-08-19T01:05:01;100504.28;;;18.19;82.72
72560;BME280;62987;52.382;9.752;2022-08-19T01:07:32;100493.63;;;18.17;82.63
72560;BME280;62987;52.382;9.752;2022-08-19T01:10:06;100500.34;;;18.12;82.64
72560;BME280;62987;52.382;9.752;2022-08-19T01:12:35;100487.09;;;18.09;82.62
72560;BME280;62987;52.382;9.752;2022-08-19T01:15:06;100492.13;;;18.13;82.48
72560;BME280;62987;52.382;9.752;2022-08-19T01:17:36;100486.88;;;18.12;82.67
72560;BME280;62987;52.382;9.752;2022-08-19T01:20:07;100491.88;;;18.05;82.91
72560;BME280;62987;52.382;9.752;2022-08-19T01:22:43;100501.03;;;18.03;83.47
72560;BME280;62987;52.382;9.752;2022-08-19T01:25:13;100512.03;;;18.00;83.49
72560;BME280;62987;52.382;9.752;2022-08-19T01:27:45;100503.72;;;18.03;83.14
72560;BME280;62987;52.382;9.752;2022-08-19T01:30:18;100499.44;;;18.00;83.40
72560;BME280;62987;52.382;9.752;2022-08-19T01:32:48;100496.75;;;18.00;83.52
72560;BME280;62987;52.382;9.752;2022-08-19T01:35:17;100503.00;;;18.01;83.97
72560;BME280;62987;52.382;9.752;2022-08-19T01:37:49;100506.53;;;18.01;83.52
72560;BME280;62987;52.382;9.752;2022-08-19T01:40:19;100514.47;;;18.03;83.99
72560;BME280;62987;52.382;9.752;2022-08-19T01:42:48;100506.19;;;18.06;82.94
72560;BME280;62987;52.382;9.752;2022-08-19T01:45:16;100502.41;;;18.08;83.36
72560;BME280;62987;52.382;9.752;2022-08-19T01:47:44;100494.94;;;18.12;83.08
72560;BME280;62987;52.382;9.752;2022-08-19T01:50:29;100483.69;;;18.07;83.29
72560;BME280;62987;52.382;9.752;2022-08-19T01:53:00;100487.44;;;18.04;83.36
72560;BME280;62987;52.382;9.752;2022-08-19T01:55:34;100492.09;;;18.02;83.11
72560;BME280;62987;52.382;9.752;2022-08-19T01:58:12;100478.78;;;18.01;83.41
72560;BME280;62987;52.382;9.752;2022-08-19T02:00:41;100476.94;;;18.01;83.10
72560;BME280;62987;52.382;9.752;2022-08-19T02:03:09;100487.69;;;18.01;83.26
72560;BME280;62987;52.382;9.752;2022-08-19T02:05:38;100489.16;;;18.05;83.15
72560;BME280;62987;52.382;9.752;2022-08-19T02:08:08;100485.88;;;18.02;83.30
72560;BME280;62987;52.382;9.752;2022-08-19T02:10:39;100485.00;;;18.01;83.42
72560;BME280;62987;52.382;9.752;2022-08-19T02:13:07;100489.25;;;17.92;83.92
72560;BME280;62987;52.382;9.752;2022-08-19T02:15:36;100491.94;;;17.92;83.77
72560;BME280;62987;52.382;9.752;2022-08-19T02:18:05;100507.84;;;17.95;83.72
72560;BME280;62987;52.382;9.752;2022-08-19T02:20:35;100496.69;;;17.89;84.05
72560;BME280;62987;52.382;9.752;2022-08-19T02:23:03;100490.00;;;17.94;83.90
72560;BME280;62987;52.382;9.752;2022-08-19T02:25:41;100491.94;;;17.92;83.95
72560;BME280;62987;52.382;9.752;2022-08-19T02:28:09;100477.97;;;17.87;83.76
72560;BME280;62987;52.382;9.752;2022-08-19T02:30:43;100486.66;;;17.91;83.93
72560;BME280;62987;52.382;9.752;2022-08-19T02:33:12;100485.81;;;17.90;83.92
72560;BME280;62987;52.382;9.752;2022-08-19T02:35:41;100483.38;;;17.87;84.15
72560;BME280;62987;52.382;9.752;2022-08-19T02:38:10;100474.44;;;17.87;84.27
72560;BME280;62987;52.382;9.752;2022-08-19T02:40:56;100471.00;;;17.85;84.16
72560;BME280;62987;52.382;9.752;2022-08-19T02:43:25;100476.25;;;17.86;84.43
72560;BME280;62987;52.382;9.752;2022-08-19T02:45:54;100481.41;;;17.89;84.13
72560;BME280;62987;52.382;9.752;2022-08-19T02:48:24;100479.72;;;17.88;83.94
72560;BME280;62987;52.382;9.752;2022-08-19T02:50:52;100486.78;;;17.89;84.04
72560;BME280;62987;52.382;9.752;2022-08-19T02:53:23;100479.56;;;17.90;84.06
72560;BME280;62987;52.382;9.752;2022-08-19T02:55:53;100477.00;;;17.88;83.87
72560;BME280;62987;52.382;9.752;2022-08-19T02:58:22;100475.28;;;17.87;83.87
72560;BME280;62987;52.382;9.752;2022-08-19T03:00:53;100480.53;;;17.89;83.82
72560;BME280;62987;52.382;9.752;2022-08-19T03:03:22;100483.97;;;17.91;83.92
72560;BME280;62987;52.382;9.752;2022-08-19T03:05:50;100472.72;;;17.86;83.93
72560;BME280;62987;52.382;9.752;2022-08-19T03:08:23;100476.16;;;17.88;83.73
72560;BME280;62987;52.382;9.752;2022-08-19T03:10:53;100478.19;;;17.84;83.98
72560;BME280;62987;52.382;9.752;2022-08-19T03:13:21;100481.16;;;17.81;83.66
72560;BME280;62987;52.382;9.752;2022-08-19T03:15:50;100478.19;;;17.84;83.71
72560;BME280;62987;52.382;9.752;2022-08-19T03:18:18;100481.66;;;17.86;83.60
72560;BME280;62987;52.382;9.752;2022-08-19T03:20:51;100489.94;;;17.83;84.02
72560;BME280;62987;52.382;9.752;2022-08-19T03:23:22;100497.78;;;17.86;83.46
72560;BME280;62987;52.382;9.752;2022-08-19T03:25:52;100499.97;;;17.81;83.56
72560;BME280;62987;52.382;9.752;2022-08-19T03:28:33;100503.53;;;17.82;83.73
72560;BME280;62987;52.382;9.752;2022-08-19T03:31:04;100491.63;;;17.73;83.84
72560;BME280;62987;52.382;9.752;2022-08-19T03:33:52;100495.78;;;17.77;83.54
72560;BME280;62987;52.382;9.752;2022-08-19T03:36:22;100494.81;;;17.78;83.81
72560;BME280;62987;52.382;9.752;2022-08-19T03:38:54;100494.19;;;17.75;83.65
72560;BME280;62987;52.382;9.752;2022-08-19T03:41:27;100507.00;;;17.71;83.81
72560;BME280;62987;52.382;9.752;2022-08-19T03:44:11;100512.09;;;17.63;84.26
72560;BME280;62987;52.382;9.752;2022-08-19T03:46:45;100515.97;;;17.59;84.29
72560;BME280;62987;52.382;9.752;2022-08-19T03:49:14;100514.47;;;17.55;84.74
72560;BME280;62987;52.382;9.752;2022-08-19T03:51:45;100518.34;;;17.51;84.99
72560;BME280;62987;52.382;9.752;2022-08-19T03:54:15;100524.94;;;17.47;85.32
72560;BME280;62987;52.382;9.752;2022-08-19T03:56:45;100521.84;;;17.40;85.17
72560;BME280;62987;52.382;9.752;2022-08-19T03:59:19;100508.44;;;17.28;85.35
72560;BME280;62987;52.382;9.752;2022-08-19T04:01:47;100524.88;;;17.36;85.26
72560;BME280;62987;52.382;9.752;2022-08-19T04:04:15;100519.72;;;17.33;85.51
72560;BME280;62987;52.382;9.752;2022-08-19T04:06:45;100515.19;;;17.33;85.59
72560;BME280;62987;52.382;9.752;2022-08-19T04:09:15;100518.94;;;17.31;85.68
72560;BME280;62987;52.382;9.752;2022-08-19T04:11:45;100519.09;;;17.29;85.62
72560;BME280;62987;52.382;9.752;2022-08-19T04:14:17;100520.16;;;17.27;85.68
72560;BME280;62987;52.382;9.752;2022-08-19T04:16:47;100521.47;;;17.21;85.72
72560;BME280;62987;52.382;9.752;2022-08-19T04:19:16;100516.63;;;17.13;85.49
72560;BME280;62987;52.382;9.752;2022-08-19T04:21:47;100532.09;;;17.23;85.91
72560;BME280;62987;52.382;9.752;2022-08-19T04:24:17;100532.84;;;17.25;85.33
72560;BME280;62987;52.382;9.752;2022-08-19T04:26:47;100527.69;;;17.22;85.36
72560;BME280;62987;52.382;9.752;2022-08-19T04:29:18;100527.69;;;17.22;85.45
72560;BME280;62987;52.382;9.752;2022-08-19T04:31:49;100512.53;;;17.21;84.97
72560;BME280;62987;52.382;9.752;2022-08-19T04:34:19;100505.13;;;17.11;85.06
72560;BME280;62987;52.382;9.752;2022-08-19T04:36:50;100515.22;;;17.21;85.14
72560;BME280;62987;52.382;9.752;2022-08-19T04:39:21;100510.47;;;17.24;85.20
72560;BME280;62987;52.382;9.752;2022-08-19T04:41:49;100516.72;;;17.25;84.71
72560;BME280;62987;52.382;9.752;2022-08-19T04:44:36;100505.75;;;17.28;84.75
72560;BME280;62987;52.382;9.752;2022-08-19T04:47:12;100517.25;;;17.30;84.83
72560;BME280;62987;52.382;9.752;2022-08-19T04:49:40;100512.09;;;17.27;84.68
72560;BME280;62987;52.382;9.752;2022-08-19T04:52:08;100513.91;;;17.26;84.53
72560;BME280;62987;52.382;9.752;2022-08-19T04:54:36;100519.94;;;17.30;84.37
72560;BME280;62987;52.382;9.752;2022-08-19T04:57:07;100523.81;;;17.26;84.31
72560;BME280;62987;52.382;9.752;2022-08-19T04:59:38;100534.81;;;17.23;84.29
72560;BME280;62987;52.382;9.752;2022-08-19T05:02:07;100535.41;;;17.26;84.22
72560;BME280;62987;52.382;9.752;2022-08-19T05:04:36;100528.47;;;17.24;84.10
72560;BME280;62987;52.382;9.752;2022-08-19T05:07:06;100534.88;;;17.34;83.65
72560;BME280;62987;52.382;9.752;2022-08-19T05:09:35;100538.00;;;17.28;83.49
72560;BME280;62987;52.382;9.752;2022-08-19T05:12:24;100550.47;;;17.29;83.26
72560;BME280;62987;52.382;9.752;2022-08-19T05:14:57;100542.94;;;17.34;83.30
72560;BME280;62987;52.382;9.752;2022-08-19T05:17:26;100546.16;;;17.39;83.22
72560;BME280;62987;52.382;9.752;2022-08-19T05:20:00;100537.63;;;17.45;82.66
72560;BME280;62987;52.382;9.752;2022-08-19T05:22:47;100531.69;;;17.52;82.54
72560;BME280;62987;52.382;9.752;2022-08-19T05:25:18;100525.69;;;17.49;82.13
72560;BME280;62987;52.382;9.752;2022-08-19T05:27:48;100518.13;;;17.54;82.16
72560;BME280;62987;52.382;9.752;2022-08-19T05:30:17;100522.41;;;17.56;81.97
72560;BME280;62987;52.382;9.752;2022-08-19T05:33:06;100515.44;;;17.54;82.07
72560;BME280;62987;52.382;9.752;2022-08-19T05:35:36;100528.13;;;17.52;82.30
72560;BME280;62987;52.382;9.752;2022-08-19T05:38:04;100523.09;;;17.47;82.04
72560;BME280;62987;52.382;9.752;2022-08-19T05:40:34;100514.63;;;17.41;82.51
72560;BME280;62987;52.382;9.752;2022-08-19T05:43:03;100519.44;;;17.48;82.43
72560;BME280;62987;52.382;9.752;2022-08-19T05:45:38;100522.53;;;17.55;82.36
72560;BME280;62987;52.382;9.752;2022-08-19T05:48:06;100517.88;;;17.57;81.47
72560;BME280;62987;52.382;9.752;2022-08-19T05:50:35;100522.63;;;17.66;81.46
72560;BME280;62987;52.382;9.752;2022-08-19T05:53:04;100517.75;;;17.71;81.26
72560;BME280;62987;52.382;9.752;2022-08-19T05:55:32;100517.03;;;17.69;80.57
72560;BME280;62987;52.382;9.752;2022-08-19T05:58:00;100513.13;;;17.73;80.73
72560;BME280;62987;52.382;9.752;2022-08-19T06:00:29;100528.31;;;17.74;79.88
72560;BME280;62987;52.382;9.752;2022-08-19T06:02:59;100525.38;;;17.77;79.77
72560;BME280;62987;52.382;9.752;2022-08-19T06:05:38;100517.31;;;17.77;79.55
72560;BME280;62987;52.382;9.752;2022-08-19T06:08:18;100537.00;;;17.78;79.28
72560;BME280;62987;52.382;9.752;2022-08-19T06:11:12;100535.06;;;17.80;79.42
72560;BME280;62987;52.382;9.752;2022-08-19T06:13:40;100541.06;;;17.83;79.09
72560;BME280;62987;52.382;9.752;2022-08-19T06:16:09;100543.25;;;17.78;78.28
72560;BME280;62987;52.382;9.752;2022-08-19T06:18:38;100548.91;;;17.86;79.01
72560;BME280;62987;52.382;9.752;2022-08-19T06:21:06;100545.00;;;17.90;78.92
72560;BME280;62987;52.382;9.752;2022-08-19T06:23:34;100541.59;;;17.88;78.42
72560;BME280;62987;52.382;9.752;2022-08-19T06:26:02;100551.91;;;17.94;78.39
72560;BME280;62987;52.382;9.752;2022-08-19T06:28:31;100549.22;;;17.94;78.14
72560;BME280;62987;52.382;9.752;2022-08-19T06:31:05;100563.69;;;18.05;78.25
72560;BME280;62987;52.382;9.752;2022-08-19T06:33:34;100570.78;;;18.06;77.83
72560;BME280;62987;52.382;9.752;2022-08-19T06:36:04;100572.56;;;18.18;77.46
72560;BME280;62987;52.382;9.752;2022-08-19T06:38:32;100567.44;;;18.26;76.86
72560;BME280;62987;52.382;9.752;2022-08-19T06:41:02;100557.19;;;18.31;76.63
72560;BME280;62987;52.382;9.752;2022-08-19T06:43:34;100557.88;;;18.22;76.63
72560;BME280;62987;52.382;9.752;2022-08-19T06:46:12;100568.41;;;18.25;76.66
72560;BME280;62987;52.382;9.752;2022-08-19T06:48:41;100563.03;;;18.25;76.58
72560;BME280;62987;52.382;9.752;2022-08-19T06:51:14;100573.34;;;18.31;76.53
72560;BME280;62987;52.382;9.752;2022-08-19T06:53:45;100584.28;;;18.41;76.49
72560;BME280;62987;52.382;9.752;2022-08-19T06:56:15;100576.69;;;18.46;76.12
72560;BME280;62987;52.382;9.752;2022-08-19T06:58:44;100582.56;;;18.40;75.88
72560;BME280;62987;52.382;9.752;2022-08-19T07:01:13;100586.34;;;18.48;75.95
72560;BME280;62987;52.382;9.752;2022-08-19T07:03:41;100592.47;;;18.39;76.19
72560;BME280;62987;52.382;9.752;2022-08-19T07:06:14;100586.13;;;18.40;76.13
72560;BME280;62987;52.382;9.752;2022-08-19T07:09:09;100607.06;;;18.48;75.77
72560;BME280;62987;52.382;9.752;2022-08-19T07:11:39;100595.63;;;18.57;75.67
72560;BME280;62987;52.382;9.752;2022-08-19T07:14:11;100603.03;;;18.77;75.03
72560;BME280;62987;52.382;9.752;2022-08-19T07:16:46;100599.47;;;18.76;74.77
72560;BME280;62987;52.382;9.752;2022-08-19T07:19:14;100595.59;;;18.92;74.06
72560;BME280;62987;52.382;9.752;2022-08-19T07:21:47;100601.47;;;18.97;73.90
72560;BME280;62987;52.382;9.752;2022-08-19T07:24:16;100609.06;;;19.03;73.42
72560;BME280;62987;52.382;9.752;2022-08-19T07:26:45;100620.81;;;19.13;73.26
72560;BME280;62987;52.382;9.752;2022-08-19T07:29:18;100626.00;;;19.16;73.29
72560;BME280;62987;52.382;9.752;2022-08-19T07:31:55;100618.03;;;19.26;73.03
72560;BME280;62987;52.382;9.752;2022-08-19T07:34:28;100629.94;;;19.34;72.46
72560;BME280;62987;52.382;9.752;2022-08-19T07:36:58;100636.06;;;19.36;72.42
72560;BME280;62987;52.382;9.752;2022-08-19T07:39:29;100636.28;;;19.33;72.22
72560;BME280;62987;52.382;9.752;2022-08-19T07:42:00;100628.19;;;19.33;72.11
72560;BME280;62987;52.382;9.752;2022-08-19T07:44:28;100644.19;;;19.47;71.71
72560;BME280;62987;52.382;9.752;2022-08-19T07:46:57;100632.13;;;19.29;71.61
72560;BME280;62987;52.382;9.752;2022-08-19T07:49:27;100656.53;;;19.39;71.75
72560;BME280;62987;52.382;9.752;2022-08-19T07:51:59;100658.91;;;19.54;71.70
72560;BME280;62987;52.382;9.752;2022-08-19T07:54:30;100662.09;;;19.60;71.36
72560;BME280;62987;52.382;9.752;2022-08-19T07:57:00;100661.59;;;19.66;71.60
72560;BME280;62987;52.382;9.752;2022-08-19T07:59:28;100652.75;;;19.86;70.33
72560;BME280;62987;52.382;9.752;2022-08-19T08:01:56;100662.44;;;19.88;69.71
72560;BME280;62987;52.382;9.752;2022-08-19T08:04:26;100655.28;;;19.99;69.55
72560;BME280;62987;52.382;9.752;2022-08-19T08:07:14;100663.25;;;20.11;68.50
72560;BME280;62987;52.382;9.752;2022-08-19T08:10:01;100651.72;;;19.98;68.34
72560;BME280;62987;52.382;9.752;2022-08-19T08:12:32;100672.09;;;20.13;68.66
72560;BME280;62987;52.382;9.752;2022-08-19T08:15:04;100667.94;;;19.98;68.17
72560;BME280;62987;52.382;9.752;2022-08-19T08:17:38;100671.22;;;20.13;67.60
72560;BME280;62987;52.382;9.752;2022-08-19T08:20:17;100668.63;;;20.33;67.64
72560;BME280;62987;52.382;9.752;2022-08-19T08:22:49;100668.81;;;20.53;65.92
72560;BME280;62987;52.382;9.752;2022-08-19T08:25:36;100669.31;;;20.47;65.79
72560;BME280;62987;52.382;9.752;2022-08-19T08:28:04;100665.28;;;20.73;64.31
72560;BME280;62987;52.382;9.752;2022-08-19T08:30:43;100665.28;;;20.73;64.07
72560;BME280;62987;52.382;9.752;2022-08-19T08:33:18;100664.28;;;20.95;64.25
72560;BME280;62987;52.382;9.752;2022-08-19T08:36:01;100666.78;;;21.19;62.54
72560;BME280;62987;52.382;9.752;2022-08-19T08:38:32;100663.53;;;21.25;61.65
72560;BME280;62987;52.382;9.752;2022-08-19T08:41:10;100671.09;;;20.89;62.22
72560;BME280;62987;52.382;9.752;2022-08-19T08:43:48;100667.59;;;20.98;61.47
72560;BME280;62987;52.382;9.752;2022-08-19T08:46:22;100667.91;;;20.84;62.69
72560;BME280;62987;52.382;9.752;2022-08-19T08:49:04;100658.50;;;20.79;63.30
72560;BME280;62987;52.382;9.752;2022-08-19T08:51:39;100667.16;;;20.93;63.01
72560;BME280;62987;52.382;9.752;2022-08-19T08:54:20;100662.13;;;21.09;62.88
72560;BME280;62987;52.382;9.752;2022-08-19T08:56:53;100664.31;;;21.16;61.65
72560;BME280;62987;52.382;9.752;2022-08-19T08:59:24;100658.13;;;21.55;60.12
72560;BME280;62987;52.382;9.752;2022-08-19T09:01:54;100666.50;;;21.82;59.43
72560;BME280;62987;52.382;9.752;2022-08-19T09:04:22;100659.63;;;22.09;58.92
72560;BME280;62987;52.382;9.752;2022-08-19T09:07:09;100667.06;;;22.26;57.87
72560;BME280;62987;52.382;9.752;2022-08-19T09:10:09;100660.63;;;22.08;55.30
72560;BME280;62987;52.382;9.752;2022-08-19T09:12:44;100673.97;;;22.00;56.19
72560;BME280;62987;52.382;9.752;2022-08-19T09:15:18;100674.03;;;22.19;56.56
72560;BME280;62987;52.382;9.752;2022-08-19T09:18:03;100662.63;;;22.25;55.64
72560;BME280;62987;52.382;9.752;2022-08-19T09:20:33;100651.19;;;22.12;56.29
72560;BME280;62987;52.382;9.752;2022-08-19T09:23:01;100669.50;;;22.29;56.54
72560;BME280;62987;52.382;9.752;2022-08-19T09:25:32;100661.50;;;22.37;56.29
72560;BME280;62987;52.382;9.752;2022-08-19T09:28:01;100665.78;;;22.30;56.28
72560;BME280;62987;52.382;9.752;2022-08-19T09:30:34;100663.25;;;22.77;55.37
72560;BME280;62987;52.382;9.752;2022-08-19T09:33:04;100658.25;;;23.01;54.82
72560;BME280;62987;52.382;9.752;2022-08-19T09:35:33;100651.81;;;22.63;53.78
72560;BME280;62987;52.382;9.752;2022-08-19T09:38:18;100647.56;;;22.80;53.95
72560;BME280;62987;52.382;9.752;2022-08-19T09:40:48;100632.50;;;23.15;53.56
72560;BME280;62987;52.382;9.752;2022-08-19T09:43:18;100634.41;;;23.41;52.36
72560;BME280;62987;52.382;9.752;2022-08-19T09:46:00;100635.25;;;23.79;52.13
72560;BME280;62987;52.382;9.752;2022-08-19T09:48:28;100643.94;;;23.65;51.91
72560;BME280;62987;52.382;9.752;2022-08-19T09:51:03;100647.16;;;23.78;51.68
72560;BME280;62987;52.382;9.752;2022-08-19T09:53:31;100653.38;;;23.88;51.81
72560;BME280;62987;52.382;9.752;2022-08-19T09:56:02;100650.16;;;23.75;50.96
72560;BME280;62987;52.382;9.752;2022-08-19T09:58:30;100647.09;;;23.87;50.70
72560;BME280;62987;52.382;9.752;2022-08-19T10:01:00;100643.84;;;23.84;51.16
72560;BME280;62987;52.382;9.752;2022-08-19T10:03:30;100640.94;;;23.85;50.56
72560;BME280;62987;52.382;9.752;2022-08-19T10:06:01;100645.34;;;23.69;50.69
72560;BME280;62987;52.382;9.752;2022-08-19T10:08:31;100645.19;;;23.14;51.30
72560;BME280;62987;52.382;9.752;2022-08-19T10:11:02;100645.19;;;23.33;50.75
72560;BME280;62987;52.382;9.752;2022-08-19T10:13:52;100641.16;;;23.37;51.69
72560;BME280;62987;52.382;9.752;2022-08-19T10:16:21;100649.50;;;23.17;52.17
72560;BME280;62987;52.382;9.752;2022-08-19T10:18:56;100649.69;;;23.42;51.31
72560;BME280;62987;52.382;9.752;2022-08-19T10:21:26;100639.00;;;23.50;50.69
72560;BME280;62987;52.382;9.752;2022-08-19T10:24:00;100635.56;;;23.48;49.98
72560;BME280;62987;52.382;9.752;2022-08-19T10:26:34;100629.13;;;23.49;50.34
72560;BME280;62987;52.382;9.752;2022-08-19T10:29:04;100635.34;;;23.69;50.39
72560;BME280;62987;52.382;9.752;2022-08-19T10:31:35;100631.16;;;23.75;50.21
72560;BME280;62987;52.382;9.752;2022-08-19T10:34:23;100632.97;;;23.84;50.42
72560;BME280;62987;52.382;9.752;2022-08-19T10:36:55;100626.06;;;23.89;48.48
72560;BME280;62987;52.382;9.752;2022-08-19T10:39:27;100609.00;;;24.42;47.98
72560;BME280;62987;52.382;9.752;2022-08-19T10:42:04;100604.91;;;24.82;45.98
72560;BME280;62987;52.382;9.752;2022-08-19T10:44:33;100614.06;;;24.98;46.26
72560;BME280;62987;52.382;9.752;2022-08-19T10:47:02;100608.31;;;24.84;45.93
72560;BME280;62987;52.382;9.752;2022-08-19T10:49:50;100605.81;;;24.47;46.94
72560;BME280;62987;52.382;9.752;2022-08-19T10:52:38;100600.59;;;24.53;45.89
72560;BME280;62987;52.382;9.752;2022-08-19T10:55:18;100590.81;;;24.43;45.65
72560;BME280;62987;52.382;9.752;2022-08-19T10:58:09;100590.75;;;24.35;46.06
72560;BME280;62987;52.382;9.752;2022-08-19T11:00:38;100583.66;;;24.42;45.26
72560;BME280;62987;52.382;9.752;2022-08-19T11:03:07;100588.16;;;24.51;46.24
72560;BME280;62987;52.382;9.752;2022-08-19T11:05:35;100587.34;;;24.76;45.47
72560;BME280;62987;52.382;9.752;2022-08-19T11:08:06;100582.06;;;24.92;45.15
72560;BME280;62987;52.382;9.752;2022-08-19T11:10:50;100583.34;;;25.06;44.58
72560;BME280;62987;52.382;9.752;2022-08-19T11:13:21;100592.19;;;25.34;43.57
72560;BME280;62987;52.382;9.752;2022-08-19T11:15:56;100584.22;;;25.48;43.95
72560;BME280;62987;52.382;9.752;2022-08-19T11:18:29;100578.41;;;25.69;41.32
72560;BME280;62987;52.382;9.752;2022-08-19T11:21:06;100570.25;;;25.77;41.57
72560;BME280;62987;52.382;9.752;2022-08-19T11:23:37;100569.94;;;25.88;40.85
72560;BME280;62987;52.382;9.752;2022-08-19T11:26:08;100563.41;;;25.73;40.98
72560;BME280;62987;52.382;9.752;2022-08-19T11:28:38;100567.72;;;25.50;42.18
72560;BME280;62987;52.382;9.752;2022-08-19T11:31:10;100560.84;;;25.64;42.11
72560;BME280;62987;52.382;9.752;2022-08-19T11:33:38;100560.84;;;25.64;42.32
72560;BME280;62987;52.382;9.752;2022-08-19T11:36:07;100557.84;;;25.91;42.04
72560;BME280;62987;52.382;9.752;2022-08-19T11:38:40;100550.72;;;25.98;42.21
72560;BME280;62987;52.382;9.752;2022-08-19T11:41:08;100557.88;;;26.07;40.90
72560;BME280;62987;52.382;9.752;2022-08-19T11:43:38;100553.63;;;26.21;41.84
72560;BME280;62987;52.382;9.752;2022-08-19T11:46:11;100555.06;;;26.25;41.35
72560;BME280;62987;52.382;9.752;2022-08-19T11:48:39;100565.97;;;26.49;40.18
72560;BME280;62987;52.382;9.752;2022-08-19T11:51:10;100562.38;;;26.33;40.31
72560;BME280;62987;52.382;9.752;2022-08-19T11:53:38;100557.59;;;26.59;39.98
72560;BME280;62987;52.382;9.752;2022-08-19T11:56:08;100563.22;;;26.74;39.95
72560;BME280;62987;52.382;9.752;2022-08-19T11:58:37;100554.00;;;26.83;39.73
72560;BME280;62987;52.382;9.752;2022-08-19T12:01:07;100561.88;;;26.94;38.76
72560;BME280;62987;52.382;9.752;2022-08-19T12:03:36;100558.44;;;26.76;38.48
72560;BME280;62987;52.382;9.752;2022-08-19T12:06:05;100549.22;;;26.85;38.77
72560;BME280;62987;52.382;9.752;2022-08-19T12:08:34;100547.19;;;26.95;38.44
72560;BME280;62987;52.382;9.752;2022-08-19T12:11:02;100547.66;;;27.15;38.54
72560;BME280;62987;52.382;9.752;2022-08-19T12:13:30;100536.50;;;27.32;38.90
72560;BME280;62987;52.382;9.752;2022-08-19T12:15:58;100532.03;;;27.39;38.03
72560;BME280;62987;52.382;9.752;2022-08-19T12:18:28;100530.28;;;27.47;38.30
72560;BME280;62987;52.382;9.752;2022-08-19T12:20:56;100523.50;;;27.34;37.55
72560;BME280;62987;52.382;9.752;2022-08-19T12:23:24;100526.88;;;27.83;36.66
72560;BME280;62987;52.382;9.752;2022-08-19T12:25:52;100526.22;;;28.04;35.98
72560;BME280;62987;52.382;9.752;2022-08-19T12:28:24;100529.75;;;28.36;35.65
72560;BME280;62987;52.382;9.752;2022-08-19T12:30:52;100536.78;;;28.07;36.15
72560;BME280;62987;52.382;9.752;2022-08-19T12:33:20;100534.31;;;28.43;35.87
72560;BME280;62987;52.382;9.752;2022-08-19T12:35:55;100530.66;;;28.88;34.74
72560;BME280;62987;52.382;9.752;2022-08-19T12:38:28;100528.13;;;29.31;34.09
72560;BME280;62987;52.382;9.752;2022-08-19T12:40:56;100522.47;;;29.98;32.87
72560;BME280;62987;52.382;9.752;2022-08-19T12:43:26;100531.59;;;30.47;32.03
72560;BME280;62987;52.382;9.752;2022-08-19T12:45:57;100529.41;;;30.57;32.10
72560;BME280;62987;52.382;9.752;2022-08-19T12:48:26;100529.22;;;31.56;30.63
72560;BME280;62987;52.382;9.752;2022-08-19T12:51:06;100533.63;;;31.44;30.85
72560;BME280;62987;52.382;9.752;2022-08-19T12:53:35;100537.63;;;31.82;30.33
72560;BME280;62987;52.382;9.752;2022-08-19T12:56:05;100541.13;;;32.37;29.57
72560;BME280;62987;52.382;9.752;2022-08-19T12:58:38;100533.09;;;32.48;28.20
72560;BME280;62987;52.382;9.752;2022-08-19T13:01:17;100533.97;;;32.69;27.70
72560;BME280;62987;52.382;9.752;2022-08-19T13:03:50;100524.19;;;33.06;26.77
72560;BME280;62987;52.382;9.752;2022-08-19T13:06:20;100513.50;;;33.42;26.11
72560;BME280;62987;52.382;9.752;2022-08-19T13:08:49;100519.16;;;33.60;25.99
72560;BME280;62987;52.382;9.752;2022-08-19T13:11:22;100516.84;;;33.57;25.88
72560;BME280;62987;52.382;9.752;2022-08-19T13:13:52;100522.16;;;33.97;24.91
72560;BME280;62987;52.382;9.752;2022-08-19T13:16:21;100520.50;;;33.96;24.45